sensor_id;sensor_type;location;lat;lon;timestamp;pressure;altitude;pressure_sealevel;temperature;humidity
30875;BME280;17581;43.222;27.924;2023-07-13T00:00:27;100772.91;;;25.57;100.00
30875;BME280;17581;43.222;27.924;2023-07-13T00:02:53;100774.59;;;25.58;100.00
30875;BME280;17581;43.222;27.924;2023-07-13T00:05:23;100758.09;;;25.44;100.00
30875;BME280;17581;43.222;27.924;2023-07-13T00:07:50;100774.69;;;25.38;100.00
30875;BME280;17581;43.222;27.924;2023-07-13T00:10:16;100743.41;;;25.13;100.00
30875;BME280;17581;43.222;27.924;2023-07-13T00:12:43;100762.47;;;25.08;100.00
30875;BME280;17581;43.222;27.924;2023-07-13T00:15:16;100743.88;;;24.97;100.00
30875;BME280;17581;43.222;27.924;2023-07-13T00:17:46;100738.78;;;25.07;100.00
30875;BME280;17581;43.222;27.924;2023-07-13T00:20:12;100752.88;;;25.23;100.00
30875;BME280;17581;43.222;27.924;2023-07-13T00:22:39;100727.94;;;25.12;100.00
30875;BME280;17581;43.222;27.924;2023-07-13T00:25:05;100765.34;;;25.32;100.00
30875;BME280;17581;43.222;27.924;2023-07-13T00:27:31;100729.84;;;25.11;100.00
30875;BME280;17581;43.222;27.924;2023-07-13T00:29:58;100722.44;;;25.12;100.00
30875;BME280;17581;43.222;27.924;2023-07-13T00:32:24;100761.34;;;25.35;100.00
30875;BME280;17581;43.222;27.924;2023-07-13T00:34:51;100737.84;;;25.26;100.00
30875;BME280;17581;43.222;27.924;2023-07-13T00:37:17;100727.25;;;25.23;100.00
30875;BME280;17581;43.222;27.924;2023-07-13T00:39:43;100713.31;;;25.18;100.00
30875;BME280;17581;43.222;27.924;2023-07-13T00:42:08;100728.69;;;25.32;100.00
30875;BME280;17581;43.222;27.924;2023-07-13T00:44:34;100705.66;;;25.20;100.00
30875;BME280;17581;43.222;27.924;2023-07-13T00:46:59;100736.91;;;25.45;100.00
30875;BME280;17581;43.222;27.924;2023-07-13T00:49:27;100709.88;;;25.29;100.00
30875;BME280;17581;43.222;27.924;2023-07-13T00:51:55;100722.94;;;25.47;100.00
30875;BME280;17581;43.222;27.924;2023-07-13T00:54:43;100720.38;;;25.45;100.00
30875;BME280;17581;43.222;27.924;2023-07-13T00:57:14;100703.50;;;25.35;100.00
30875;BME280;17581;43.222;27.924;2023-07-13T00:59:43;100728.03;;;25.50;100.00
30875;BME280;17581;43.222;27.924;2023-07-13T01:02:10;100701.81;;;25.34;100.00
30875;BME280;17581;43.222;27.924;2023-07-13T01:04:36;100695.31;;;25.22;100.00
30875;BME280;17581;43.222;27.924;2023-07-13T01:07:04;100704.78;;;25.32;100.00
30875;BME280;17581;43.222;27.924;2023-07-13T01:09:31;100700.75;;;25.35;100.00
30875;BME280;17581;43.222;27.924;2023-07-13T01:11:57;100704.13;;;25.37;100.00
30875;BME280;17581;43.222;27.924;2023-07-13T01:14:24;100672.41;;;25.28;100.00
30875;BME280;17581;43.222;27.924;2023-07-13T01:16:50;100683.84;;;25.25;100.00
30875;BME280;17581;43.222;27.924;2023-07-13T01:21:42;100691.69;;;25.28;100.00
30875;BME280;17581;43.222;27.924;2023-07-13T01:24:09;100657.03;;;25.07;100.00
30875;BME280;17581;43.222;27.924;2023-07-13T01:26:35;100669.44;;;25.23;100.00
30875;BME280;17581;43.222;27.924;2023-07-13T01:29:01;100669.06;;;25.19;100.00
30875;BME280;17581;43.222;27.924;2023-07-13T01:31:27;100655.06;;;25.21;100.00
30875;BME280;17581;43.222;27.924;2023-07-13T01:33:53;100646.59;;;25.22;100.00
30875;BME280;17581;43.222;27.924;2023-07-13T01:36:19;100649.72;;;25.26;100.00
30875;BME280;17581;43.222;27.924;2023-07-13T01:38:46;100652.69;;;25.31;100.00
30875;BME280;17581;43.222;27.924;2023-07-13T01:41:11;100667.91;;;25.33;100.00
30875;BME280;17581;43.222;27.924;2023-07-13T01:43:37;100654.41;;;25.25;100.00
30875;BME280;17581;43.222;27.924;2023-07-13T01:46:03;100659.44;;;25.35;100.00
30875;BME280;17581;43.222;27.924;2023-07-13T01:48:28;100683.53;;;25.46;100.00
30875;BME280;17581;43.222;27.924;2023-07-13T01:50:54;100653.09;;;25.34;100.00
30875;BME280;17581;43.222;27.924;2023-07-13T01:53:19;100672.34;;;25.41;100.00
30875;BME280;17581;43.222;27.924;2023-07-13T01:55:45;100669.19;;;25.37;100.00
30875;BME280;17581;43.222;27.924;2023-07-13T01:58:10;100656.94;;;25.27;100.00
30875;BME280;17581;43.222;27.924;2023-07-13T02:00:36;100654.41;;;25.25;100.00
30875;BME280;17581;43.222;27.924;2023-07-13T02:03:01;100647.22;;;25.24;100.00
30875;BME280;17581;43.222;27.924;2023-07-13T02:05:27;100673.41;;;25.40;100.00
30875;BME280;17581;43.222;27.924;2023-07-13T02:07:52;100665.78;;;25.35;100.00
30875;BME280;17581;43.222;27.924;2023-07-13T02:10:18;100667.72;;;25.35;100.00
30875;BME280;17581;43.222;27.924;2023-07-13T02:12:44;100678.22;;;25.44;100.00
30875;BME280;17581;43.222;27.924;2023-07-13T02:15:09;100665.34;;;25.38;100.00
30875;BME280;17581;43.222;27.924;2023-07-13T02:17:35;100634.94;;;25.20;100.00
30875;BME280;17581;43.222;27.924;2023-07-13T02:20:03;100663.22;;;25.40;100.00
30875;BME280;17581;43.222;27.924;2023-07-13T02:22:30;100662.38;;;25.40;100.00
30875;BME280;17581;43.222;27.924;2023-07-13T02:24:56;100652.69;;;25.31;100.00
30875;BME280;17581;43.222;27.924;2023-07-13T02:27:21;100678.03;;;25.46;100.00
30875;BME280;17581;43.222;27.924;2023-07-13T02:29:47;100666.38;;;25.44;100.00
30875;BME280;17581;43.222;27.924;2023-07-13T02:32:12;100664.56;;;25.31;100.00
30875;BME280;17581;43.222;27.924;2023-07-13T02:34:38;100636.66;;;25.15;100.00
30875;BME280;17581;43.222;27.924;2023-07-13T02:37:04;100675.13;;;25.34;100.00
30875;BME280;17581;43.222;27.924;2023-07-13T02:39:29;100660.31;;;25.29;100.00
30875;BME280;17581;43.222;27.924;2023-07-13T02:41:58;100664.13;;;25.34;100.00
30875;BME280;17581;43.222;27.924;2023-07-13T02:44:24;100672.41;;;25.28;100.00
30875;BME280;17581;43.222;27.924;2023-07-13T02:46:49;100671.75;;;25.26;100.00
30875;BME280;17581;43.222;27.924;2023-07-13T02:49:15;100650.88;;;25.12;100.00
30875;BME280;17581;43.222;27.924;2023-07-13T02:51:40;100656.59;;;25.10;100.00
30875;BME280;17581;43.222;27.924;2023-07-13T02:54:06;100649.81;;;25.13;100.00
30875;BME280;17581;43.222;27.924;2023-07-13T02:56:34;100664.81;;;25.17;100.00
30875;BME280;17581;43.222;27.924;2023-07-13T02:58:59;100668.38;;;25.24;100.00
30875;BME280;17581;43.222;27.924;2023-07-13T03:01:25;100644.31;;;25.13;100.00
30875;BME280;17581;43.222;27.924;2023-07-13T03:03:51;100667.34;;;25.25;100.00
30875;BME280;17581;43.222;27.924;2023-07-13T03:06:17;100666.94;;;25.15;100.00
30875;BME280;17581;43.222;27.924;2023-07-13T03:08:43;100639.72;;;25.00;100.00
30875;BME280;17581;43.222;27.924;2023-07-13T03:11:12;100649.00;;;25.06;100.00
30875;BME280;17581;43.222;27.924;2023-07-13T03:13:39;100657.00;;;25.14;100.00
30875;BME280;17581;43.222;27.924;2023-07-13T03:16:05;100631.59;;;25.12;98.85
30875;BME280;17581;43.222;27.924;2023-07-13T03:18:31;100625.28;;;25.05;97.85
30875;BME280;17581;43.222;27.924;2023-07-13T03:20:57;100630.75;;;25.11;97.74
30875;BME280;17581;43.222;27.924;2023-07-13T03:23:24;100669.38;;;25.36;97.14
30875;BME280;17581;43.222;27.924;2023-07-13T03:25:50;100668.31;;;25.37;96.07
30875;BME280;17581;43.222;27.924;2023-07-13T03:28:16;100644.66;;;25.23;95.67
30875;BME280;17581;43.222;27.924;2023-07-13T03:30:42;100626.06;;;25.18;95.31
30875;BME280;17581;43.222;27.924;2023-07-13T03:33:07;100645.91;;;25.27;94.63
30875;BME280;17581;43.222;27.924;2023-07-13T03:35:34;100670.38;;;25.48;94.54
30875;BME280;17581;43.222;27.924;2023-07-13T03:38:00;100671.25;;;25.49;93.76
30875;BME280;17581;43.222;27.924;2023-07-13T03:40:27;100632.84;;;25.22;93.06
30875;BME280;17581;43.222;27.924;2023-07-13T03:42:52;100648.03;;;25.31;92.79
30875;BME280;17581;43.222;27.924;2023-07-13T03:45:18;100626.66;;;25.27;91.96
30875;BME280;17581;43.222;27.924;2023-07-13T03:47:44;100640.78;;;25.37;91.07
30875;BME280;17581;43.222;27.924;2023-07-13T03:50:10;100627.22;;;25.35;90.27
30875;BME280;17581;43.222;27.924;2023-07-13T03:52:36;100675.84;;;25.61;90.15
30875;BME280;17581;43.222;27.924;2023-07-13T03:55:02;100642.41;;;25.44;90.20
30875;BME280;17581;43.222;27.924;2023-07-13T03:57:28;100639.91;;;25.50;89.68
30875;BME280;17581;43.222;27.924;2023-07-13T03:59:54;100633.09;;;25.52;89.48
30875;BME280;17581;43.222;27.924;2023-07-13T04:02:20;100652.38;;;25.52;89.80
30875;BME280;17581;43.222;27.924;2023-07-13T04:04:46;100659.47;;;25.66;89.81
30875;BME280;17581;43.222;27.924;2023-07-13T04:07:11;100651.41;;;25.71;90.30
30875;BME280;17581;43.222;27.924;2023-07-13T04:09:37;100656.03;;;25.77;90.70
30875;BME280;17581;43.222;27.924;2023-07-13T04:12:03;100657.25;;;25.81;91.43
30875;BME280;17581;43.222;27.924;2023-07-13T04:14:28;100674.25;;;26.03;92.38
30875;BME280;17581;43.222;27.924;2023-07-13T04:16:54;100679.31;;;26.06;93.00
30875;BME280;17581;43.222;27.924;2023-07-13T04:19:21;100678.44;;;26.12;93.16
30875;BME280;17581;43.222;27.924;2023-07-13T04:21:46;100675.25;;;26.15;92.75
30875;BME280;17581;43.222;27.924;2023-07-13T04:24:12;100671.44;;;26.16;92.68
30875;BME280;17581;43.222;27.924;2023-07-13T04:26:38;100672.28;;;26.17;91.92
30875;BME280;17581;43.222;27.924;2023-07-13T04:29:04;100669.69;;;26.22;91.40
30875;BME280;17581;43.222;27.924;2023-07-13T04:31:31;100671.13;;;26.24;89.26
30875;BME280;17581;43.222;27.924;2023-07-13T04:34:02;100686.13;;;26.35;87.28
30875;BME280;17581;43.222;27.924;2023-07-13T04:36:30;100675.94;;;26.35;85.45
30875;BME280;17581;43.222;27.924;2023-07-13T04:38:56;100685.25;;;26.34;84.04
30875;BME280;17581;43.222;27.924;2023-07-13T04:41:22;100686.28;;;26.40;83.29
30875;BME280;17581;43.222;27.924;2023-07-13T04:43:48;100689.66;;;26.42;82.96
30875;BME280;17581;43.222;27.924;2023-07-13T04:46:15;100688.13;;;26.46;81.64
30875;BME280;17581;43.222;27.924;2023-07-13T04:48:43;100688.31;;;26.51;80.80
30875;BME280;17581;43.222;27.924;2023-07-13T04:51:08;100698.59;;;26.62;81.04
30875;BME280;17581;43.222;27.924;2023-07-13T04:53:34;100662.84;;;26.49;78.72
30875;BME280;17581;43.222;27.924;2023-07-13T04:56:00;100678.81;;;26.65;78.17
30875;BME280;17581;43.222;27.924;2023-07-13T04:58:27;100664.75;;;26.67;77.67
30875;BME280;17581;43.222;27.924;2023-07-13T05:00:53;100692.97;;;26.93;77.95
30875;BME280;17581;43.222;27.924;2023-07-13T05:03:18;100690.34;;;26.98;77.87
30875;BME280;17581;43.222;27.924;2023-07-13T05:05:54;100681.41;;;27.03;77.40
30875;BME280;17581;43.222;27.924;2023-07-13T05:08:20;100678.53;;;27.10;76.27
30875;BME280;17581;43.222;27.924;2023-07-13T05:10:46;100690.13;;;27.18;75.85
30875;BME280;17581;43.222;27.924;2023-07-13T05:13:11;100695.06;;;27.28;75.76
30875;BME280;17581;43.222;27.924;2023-07-13T05:15:37;100667.78;;;27.20;75.50
30875;BME280;17581;43.222;27.924;2023-07-13T05:18:02;100658.94;;;27.29;74.71
30875;BME280;17581;43.222;27.924;2023-07-13T05:20:28;100670.75;;;27.36;74.28
30875;BME280;17581;43.222;27.924;2023-07-13T05:22:54;100666.22;;;27.42;73.59
30875;BME280;17581;43.222;27.924;2023-07-13T05:25:20;100691.81;;;27.67;73.25
30875;BME280;17581;43.222;27.924;2023-07-13T05:27:45;100684.34;;;27.68;72.68
30875;BME280;17581;43.222;27.924;2023-07-13T05:30:12;100675.38;;;27.72;71.84
30875;BME280;17581;43.222;27.924;2023-07-13T05:32:38;100689.13;;;27.90;71.65
30875;BME280;17581;43.222;27.924;2023-07-13T05:35:03;100693.81;;;28.01;71.58
30875;BME280;17581;43.222;27.924;2023-07-13T05:37:29;100691.84;;;28.08;70.79
30875;BME280;17581;43.222;27.924;2023-07-13T05:39:54;100708.22;;;28.22;70.51
30875;BME280;17581;43.222;27.924;2023-07-13T05:42:20;100702.91;;;28.32;70.02
30875;BME280;17581;43.222;27.924;2023-07-13T05:44:45;100711.59;;;28.35;69.56
30875;BME280;17581;43.222;27.924;2023-07-13T05:47:11;100706.56;;;28.44;68.99
30875;BME280;17581;43.222;27.924;2023-07-13T05:49:36;100713.28;;;28.48;68.53
30875;BME280;17581;43.222;27.924;2023-07-13T05:52:02;100705.72;;;28.55;69.71
30875;BME280;17581;43.222;27.924;2023-07-13T05:54:27;100712.56;;;28.64;70.94
30875;BME280;17581;43.222;27.924;2023-07-13T05:56:53;100712.50;;;28.71;70.93
30875;BME280;17581;43.222;27.924;2023-07-13T05:59:18;100708.41;;;28.73;70.08
30875;BME280;17581;43.222;27.924;2023-07-13T06:01:44;100702.59;;;28.75;68.31
30875;BME280;17581;43.222;27.924;2023-07-13T06:04:09;100705.25;;;28.81;70.17
30875;BME280;17581;43.222;27.924;2023-07-13T06:06:35;100686.47;;;28.72;65.68
30875;BME280;17581;43.222;27.924;2023-07-13T06:09:00;100702.00;;;28.84;64.45
30875;BME280;17581;43.222;27.924;2023-07-13T06:11:27;100710.63;;;28.99;63.59
30875;BME280;17581;43.222;27.924;2023-07-13T06:13:53;100702.47;;;29.04;61.63
30875;BME280;17581;43.222;27.924;2023-07-13T06:16:19;100691.88;;;29.01;60.28
30875;BME280;17581;43.222;27.924;2023-07-13T06:18:45;100705.69;;;29.13;59.94
30875;BME280;17581;43.222;27.924;2023-07-13T06:21:14;100701.72;;;29.09;59.42
30875;BME280;17581;43.222;27.924;2023-07-13T06:23:40;100681.97;;;29.05;59.26
30875;BME280;17581;43.222;27.924;2023-07-13T06:26:06;100693.28;;;29.15;59.32
30875;BME280;17581;43.222;27.924;2023-07-13T06:28:33;100707.47;;;29.31;59.31
30875;BME280;17581;43.222;27.924;2023-07-13T06:30:59;100699.50;;;29.34;59.24
30875;BME280;17581;43.222;27.924;2023-07-13T06:33:25;100707.19;;;29.44;59.20
30875;BME280;17581;43.222;27.924;2023-07-13T06:35:50;100691.16;;;29.46;59.02
30875;BME280;17581;43.222;27.924;2023-07-13T06:38:15;100702.31;;;29.62;58.86
30875;BME280;17581;43.222;27.924;2023-07-13T06:40:41;100693.22;;;29.67;58.22
30875;BME280;17581;43.222;27.924;2023-07-13T06:43:07;100690.31;;;29.74;58.50
30875;BME280;17581;43.222;27.924;2023-07-13T06:45:41;100691.84;;;29.81;57.72
30875;BME280;17581;43.222;27.924;2023-07-13T06:48:07;100691.84;;;29.81;58.06
30875;BME280;17581;43.222;27.924;2023-07-13T06:50:33;100674.59;;;29.79;57.69
30875;BME280;17581;43.222;27.924;2023-07-13T06:52:59;100667.50;;;29.83;57.29
30875;BME280;17581;43.222;27.924;2023-07-13T06:55:25;100682.22;;;30.00;57.72
30875;BME280;17581;43.222;27.924;2023-07-13T06:57:50;100679.78;;;30.04;57.78
30875;BME280;17581;43.222;27.924;2023-07-13T07:00:16;100679.38;;;29.95;61.80
30875;BME280;17581;43.222;27.924;2023-07-13T07:02:42;100683.22;;;29.94;62.50
30875;BME280;17581;43.222;27.924;2023-07-13T07:05:07;100698.78;;;29.95;62.05
30875;BME280;17581;43.222;27.924;2023-07-13T07:07:33;100681.44;;;29.88;64.53
30875;BME280;17581;43.222;27.924;2023-07-13T07:09:58;100695.44;;;29.93;65.19
30875;BME280;17581;43.222;27.924;2023-07-13T07:12:24;100699.53;;;29.91;64.85
30875;BME280;17581;43.222;27.924;2023-07-13T07:14:49;100681.84;;;29.80;65.87
30875;BME280;17581;43.222;27.924;2023-07-13T07:17:14;100692.03;;;29.91;65.38
30875;BME280;17581;43.222;27.924;2023-07-13T07:19:40;100693.75;;;29.92;63.70
30875;BME280;17581;43.222;27.924;2023-07-13T07:22:06;100692.84;;;29.75;65.27
30875;BME280;17581;43.222;27.924;2023-07-13T07:24:32;100686.09;;;29.71;64.89
30875;BME280;17581;43.222;27.924;2023-07-13T07:26:57;100689.56;;;29.78;64.62
30875;BME280;17581;43.222;27.924;2023-07-13T07:29:23;100688.47;;;29.79;64.79
30875;BME280;17581;43.222;27.924;2023-07-13T07:31:51;100663.41;;;29.74;65.40
30875;BME280;17581;43.222;27.924;2023-07-13T07:34:17;100688.69;;;29.89;65.79
30875;BME280;17581;43.222;27.924;2023-07-13T07:36:42;100689.19;;;29.86;65.69
30875;BME280;17581;43.222;27.924;2023-07-13T07:39:08;100685.22;;;29.82;66.29
30875;BME280;17581;43.222;27.924;2023-07-13T07:41:33;100696.50;;;29.92;66.69
30875;BME280;17581;43.222;27.924;2023-07-13T07:43:59;100683.22;;;29.94;66.97
30875;BME280;17581;43.222;27.924;2023-07-13T07:46:24;100688.84;;;29.83;68.91
30875;BME280;17581;43.222;27.924;2023-07-13T07:48:49;100666.44;;;29.73;68.44
30875;BME280;17581;43.222;27.924;2023-07-13T07:51:15;100696.59;;;29.97;68.79
30875;BME280;17581;43.222;27.924;2023-07-13T07:53:40;100693.22;;;29.95;68.77
30875;BME280;17581;43.222;27.924;2023-07-13T07:56:06;100696.78;;;29.79;70.00
30875;BME280;17581;43.222;27.924;2023-07-13T07:58:31;100678.22;;;29.80;69.63
30875;BME280;17581;43.222;27.924;2023-07-13T08:01:07;100689.97;;;29.98;68.91
30875;BME280;17581;43.222;27.924;2023-07-13T08:03:32;100699.63;;;30.12;68.91
30875;BME280;17581;43.222;27.924;2023-07-13T08:05:58;100698.81;;;30.12;68.61
30875;BME280;17581;43.222;27.924;2023-07-13T08:08:24;100693.53;;;30.27;68.26
30875;BME280;17581;43.222;27.924;2023-07-13T08:10:50;100695.97;;;30.23;67.93
30875;BME280;17581;43.222;27.924;2023-07-13T08:13:15;100699.31;;;30.26;68.37
30875;BME280;17581;43.222;27.924;2023-07-13T08:15:41;100683.31;;;30.16;67.62
30875;BME280;17581;43.222;27.924;2023-07-13T08:18:06;100685.00;;;30.00;68.21
30875;BME280;17581;43.222;27.924;2023-07-13T08:20:39;100697.78;;;30.01;68.14
30875;BME280;17581;43.222;27.924;2023-07-13T08:23:06;100681.72;;;30.03;68.04
30875;BME280;17581;43.222;27.924;2023-07-13T08:25:32;100698.97;;;30.22;68.02
30875;BME280;17581;43.222;27.924;2023-07-13T08:27:57;100681.47;;;30.21;68.02
30875;BME280;17581;43.222;27.924;2023-07-13T08:30:23;100689.72;;;30.16;67.87
30875;BME280;17581;43.222;27.924;2023-07-13T08:32:48;100684.25;;;30.21;69.03
30875;BME280;17581;43.222;27.924;2023-07-13T08:35:15;100671.88;;;30.12;69.04
30875;BME280;17581;43.222;27.924;2023-07-13T08:37:41;100684.50;;;30.20;68.16
30875;BME280;17581;43.222;27.924;2023-07-13T08:40:10;100685.34;;;30.20;67.94
30875;BME280;17581;43.222;27.924;2023-07-13T08:42:43;100682.66;;;30.26;67.48
30875;BME280;17581;43.222;27.924;2023-07-13T08:47:46;100671.97;;;30.34;65.38
30875;BME280;17581;43.222;27.924;2023-07-13T08:50:18;100686.03;;;30.61;63.79
30875;BME280;17581;43.222;27.924;2023-07-13T08:52:46;100677.94;;;30.59;62.60
30875;BME280;17581;43.222;27.924;2023-07-13T08:55:18;100684.50;;;30.70;60.98
30875;BME280;17581;43.222;27.924;2023-07-13T08:57:50;100687.69;;;30.79;61.15
30875;BME280;17581;43.222;27.924;2023-07-13T09:00:18;100680.84;;;30.86;60.46
30875;BME280;17581;43.222;27.924;2023-07-13T09:02:55;100688.81;;;30.99;59.17
30875;BME280;17581;43.222;27.924;2023-07-13T09:05:35;100698.34;;;31.03;56.42
30875;BME280;17581;43.222;27.924;2023-07-13T09:10:57;100687.66;;;30.95;57.19
30875;BME280;17581;43.222;27.924;2023-07-13T09:13:43;100678.56;;;30.83;57.76
30875;BME280;17581;43.222;27.924;2023-07-13T09:16:12;100679.22;;;30.90;56.79
30875;BME280;17581;43.222;27.924;2023-07-13T09:18:42;100668.81;;;30.97;56.24
30875;BME280;17581;43.222;27.924;2023-07-13T09:21:17;100687.84;;;31.10;55.66
30875;BME280;17581;43.222;27.924;2023-07-13T09:23:43;100686.75;;;31.11;55.12
30875;BME280;17581;43.222;27.924;2023-07-13T09:26:15;100687.00;;;31.32;54.09
30875;BME280;17581;43.222;27.924;2023-07-13T09:28:45;100687.13;;;31.42;53.41
30875;BME280;17581;43.222;27.924;2023-07-13T09:31:15;100665.63;;;31.32;53.39
30875;BME280;17581;43.222;27.924;2023-07-13T09:33:42;100649.78;;;31.33;53.02
30875;BME280;17581;43.222;27.924;2023-07-13T09:36:28;100663.28;;;31.46;51.26
30875;BME280;17581;43.222;27.924;2023-07-13T09:44:26;100652.56;;;31.54;50.33
30875;BME280;17581;43.222;27.924;2023-07-13T09:46:54;100657.38;;;31.64;51.34
30875;BME280;17581;43.222;27.924;2023-07-13T09:49:25;100652.88;;;31.58;52.83
30875;BME280;17581;43.222;27.924;2023-07-13T09:51:58;100675.97;;;31.58;53.30
30875;BME280;17581;43.222;27.924;2023-07-13T09:54:25;100659.59;;;31.62;54.32
30875;BME280;17581;43.222;27.924;2023-07-13T09:57:13;100668.06;;;31.50;55.14
30875;BME280;17581;43.222;27.924;2023-07-13T09:59:47;100673.97;;;31.54;55.72
30875;BME280;17581;43.222;27.924;2023-07-13T10:02:30;100666.25;;;31.61;56.10
30875;BME280;17581;43.222;27.924;2023-07-13T10:05:02;100660.75;;;31.66;55.35
30875;BME280;17581;43.222;27.924;2023-07-13T10:07:29;100648.53;;;31.67;54.28
30875;BME280;17581;43.222;27.924;2023-07-13T10:09:59;100655.50;;;31.69;53.00
30875;BME280;17581;43.222;27.924;2023-07-13T10:12:29;100640.88;;;31.52;53.51
30875;BME280;17581;43.222;27.924;2023-07-13T10:14:58;100645.16;;;31.65;53.51
30875;BME280;17581;43.222;27.924;2023-07-13T10:17:32;100643.66;;;31.84;52.68
30875;BME280;17581;43.222;27.924;2023-07-13T10:20:03;100644.28;;;31.91;52.82
30875;BME280;17581;43.222;27.924;2023-07-13T10:22:49;100634.19;;;31.80;53.01
30875;BME280;17581;43.222;27.924;2023-07-13T10:25:20;100647.19;;;32.01;52.98
30875;BME280;17581;43.222;27.924;2023-07-13T10:27:50;100625.25;;;32.05;52.77
30875;BME280;17581;43.222;27.924;2023-07-13T10:30:21;100636.75;;;32.18;52.92
30875;BME280;17581;43.222;27.924;2023-07-13T10:32:49;100623.16;;;32.22;53.13
30875;BME280;17581;43.222;27.924;2023-07-13T10:35:16;100621.81;;;32.29;52.67
30875;BME280;17581;43.222;27.924;2023-07-13T10:37:57;100634.19;;;32.49;51.54
30875;BME280;17581;43.222;27.924;2023-07-13T10:40:35;100615.69;;;32.32;51.00
30875;BME280;17581;43.222;27.924;2023-07-13T10:43:06;100621.34;;;32.43;51.19
30875;BME280;17581;43.222;27.924;2023-07-13T10:45:36;100612.56;;;32.61;50.57
30875;BME280;17581;43.222;27.924;2023-07-13T10:48:04;100629.31;;;32.66;50.00
30875;BME280;17581;43.222;27.924;2023-07-13T10:50:31;100621.00;;;32.71;50.16
30875;BME280;17581;43.222;27.924;2023-07-13T10:58:15;100627.53;;;32.50;51.96
30875;BME280;17581;43.222;27.924;2023-07-13T11:00:51;100625.28;;;32.52;51.40
30875;BME280;17581;43.222;27.924;2023-07-13T11:03:20;100615.13;;;32.67;51.54
30875;BME280;17581;43.222;27.924;2023-07-13T11:05:51;100623.84;;;32.86;51.42
30875;BME280;17581;43.222;27.924;2023-07-13T11:08:35;100624.06;;;32.74;52.35
30875;BME280;17581;43.222;27.924;2023-07-13T11:18:47;100617.38;;;33.32;50.70
30875;BME280;17581;43.222;27.924;2023-07-13T11:21:26;100621.22;;;33.16;50.46
30875;BME280;17581;43.222;27.924;2023-07-13T11:24:04;100628.47;;;33.17;51.98
30875;BME280;17581;43.222;27.924;2023-07-13T11:26:43;100626.38;;;32.93;52.68
30875;BME280;17581;43.222;27.924;2023-07-13T11:31:42;100616.09;;;32.98;51.94
30875;BME280;17581;43.222;27.924;2023-07-13T11:34:27;100608.38;;;33.10;50.86
30875;BME280;17581;43.222;27.924;2023-07-13T11:36:54;100618.97;;;33.08;50.30
30875;BME280;17581;43.222;27.924;2023-07-13T11:39:30;100610.34;;;33.20;49.96
30875;BME280;17581;43.222;27.924;2023-07-13T11:42:00;100614.53;;;33.27;49.86
30875;BME280;17581;43.222;27.924;2023-07-13T11:44:27;100619.31;;;33.37;49.38
30875;BME280;17581;43.222;27.924;2023-07-13T11:46:58;100612.63;;;33.33;49.95
30875;BME280;17581;43.222;27.924;2023-07-13T11:49:42;100629.41;;;33.53;49.82
30875;BME280;17581;43.222;27.924;2023-07-13T11:52:16;100616.25;;;33.44;50.93
30875;BME280;17581;43.222;27.924;2023-07-13T11:54:50;100598.91;;;33.11;51.81
30875;BME280;17581;43.222;27.924;2023-07-13T11:59:52;100583.56;;;33.14;51.16
30875;BME280;17581;43.222;27.924;2023-07-13T12:02:28;100576.34;;;33.28;51.17
30875;BME280;17581;43.222;27.924;2023-07-13T12:04:55;100588.66;;;33.42;50.39
30875;BME280;17581;43.222;27.924;2023-07-13T12:07:22;100598.06;;;33.16;50.92
30875;BME280;17581;43.222;27.924;2023-07-13T12:09:47;100603.41;;;33.42;50.93
30875;BME280;17581;43.222;27.924;2023-07-13T12:12:21;100605.09;;;33.44;51.30
30875;BME280;17581;43.222;27.924;2023-07-13T12:14:51;100579.97;;;33.23;52.12
30875;BME280;17581;43.222;27.924;2023-07-13T12:17:20;100581.66;;;33.29;52.09
30875;BME280;17581;43.222;27.924;2023-07-13T12:19:47;100594.50;;;33.40;51.77
30875;BME280;17581;43.222;27.924;2023-07-13T12:22:14;100595.91;;;33.33;50.85
30875;BME280;17581;43.222;27.924;2023-07-13T12:24:41;100589.75;;;33.31;51.62
30875;BME280;17581;43.222;27.924;2023-07-13T12:27:21;100594.50;;;33.40;51.40
30875;BME280;17581;43.222;27.924;2023-07-13T12:30:02;100578.28;;;33.27;50.69
30875;BME280;17581;43.222;27.924;2023-07-13T12:32:28;100588.94;;;33.40;51.11
30875;BME280;17581;43.222;27.924;2023-07-13T12:35:01;100588.66;;;33.47;50.64
30875;BME280;17581;43.222;27.924;2023-07-13T12:37:28;100577.22;;;33.44;50.55
30875;BME280;17581;43.222;27.924;2023-07-13T12:39:56;100578.03;;;33.29;50.88
30875;BME280;17581;43.222;27.924;2023-07-13T12:42:27;100557.13;;;33.31;50.68
30875;BME280;17581;43.222;27.924;2023-07-13T12:44:59;100560.75;;;33.37;50.99
30875;BME280;17581;43.222;27.924;2023-07-13T12:47:26;100566.03;;;33.33;51.29
30875;BME280;17581;43.222;27.924;2023-07-13T12:49:57;100574.13;;;33.40;50.90
30875;BME280;17581;43.222;27.924;2023-07-13T12:52:32;100559.94;;;33.47;51.23
30875;BME280;17581;43.222;27.924;2023-07-13T12:55:17;100556.00;;;33.27;51.14
30875;BME280;17581;43.222;27.924;2023-07-13T12:58:04;100554.63;;;33.40;51.73
30875;BME280;17581;43.222;27.924;2023-07-13T13:00:40;100548.75;;;33.52;51.69
30875;BME280;17581;43.222;27.924;2023-07-13T13:03:15;100548.78;;;33.57;50.83
30875;BME280;17581;43.222;27.924;2023-07-13T13:05:44;100528.97;;;33.58;50.47
30875;BME280;17581;43.222;27.924;2023-07-13T13:08:11;100538.22;;;33.69;51.05
30875;BME280;17581;43.222;27.924;2023-07-13T13:10:37;100537.66;;;33.87;50.48
30875;BME280;17581;43.222;27.924;2023-07-13T13:13:03;100525.94;;;33.90;49.96